sensor_id;sensor_type;location;lat;lon;timestamp;P1;durP1;ratioP1;P2;durP2;ratioP2
12373;SDS011;6251;51.762;8.660;2023-12-29T00:09:19;2.80;;;1.37;;
12373;SDS011;6251;51.762;8.660;2023-12-29T02:01:03;1.15;;;1.10;;
12373;SDS011;6251;51.762;8.660;2023-12-29T02:11:07;1.95;;;1.40;;
12373;SDS011;6251;51.762;8.660;2023-12-29T03:54:29;4.78;;;2.05;;
12373;SDS011;6251;51.762;8.660;2023-12-29T05:05:32;4.10;;;2.30;;
12373;SDS011;6251;51.762;8.660;2023-12-29T05:15:33;6.62;;;2.05;;
12373;SDS011;6251;51.762;8.660;2023-12-29T05:25:34;3.83;;;2.00;;
12373;SDS011;6251;51.762;8.660;2023-12-29T05:35:34;7.18;;;2.40;;
12373;SDS011;6251;51.762;8.660;2023-12-29T05:45:35;7.47;;;2.80;;
12373;SDS011;6251;51.762;8.660;2023-12-29T05:55:35;9.95;;;2.80;;
12373;SDS011;6251;51.762;8.660;2023-12-29T06:05:36;5.53;;;2.40;;
12373;SDS011;6251;51.762;8.660;2023-12-29T06:15:37;4.45;;;2.47;;
12373;SDS011;6251;51.762;8.660;2023-12-29T06:25:38;5.70;;;2.40;;
12373;SDS011;6251;51.762;8.660;2023-12-29T06:35:41;3.28;;;2.35;;
12373;SDS011;6251;51.762;8.660;2023-12-29T06:45:41;6.15;;;2.50;;
12373;SDS011;6251;51.762;8.660;2023-12-29T06:55:42;4.62;;;2.40;;
12373;SDS011;6251;51.762;8.660;2023-12-29T07:05:43;5.60;;;2.40;;
12373;SDS011;6251;51.762;8.660;2023-12-29T07:15:43;7.82;;;2.55;;
12373;SDS011;6251;51.762;8.660;2023-12-29T07:25:44;9.57;;;2.70;;
12373;SDS011;6251;51.762;8.660;2023-12-29T07:35:44;6.93;;;2.50;;
12373;SDS011;6251;51.762;8.660;2023-12-29T07:45:45;7.50;;;2.70;;
12373;SDS011;6251;51.762;8.660;2023-12-29T07:55:46;9.43;;;3.33;;
12373;SDS011;6251;51.762;8.660;2023-12-29T08:05:49;9.98;;;2.78;;
12373;SDS011;6251;51.762;8.660;2023-12-29T08:15:50;9.82;;;2.25;;
12373;SDS011;6251;51.762;8.660;2023-12-29T08:25:50;7.40;;;2.30;;
12373;SDS011;6251;51.762;8.660;2023-12-29T08:35:51;6.80;;;2.37;;
12373;SDS011;6251;51.762;8.660;2023-12-29T08:45:51;7.28;;;2.60;;
12373;SDS011;6251;51.762;8.660;2023-12-29T08:55:52;6.62;;;2.20;;
12373;SDS011;6251;51.762;8.660;2023-12-29T09:05:52;5.75;;;1.80;;
12373;SDS011;6251;51.762;8.660;2023-12-29T09:15:54;4.53;;;2.10;;
12373;SDS011;6251;51.762;8.660;2023-12-29T09:25:55;5.75;;;2.05;;
12373;SDS011;6251;51.762;8.660;2023-12-29T09:35:55;9.73;;;1.83;;
12373;SDS011;6251;51.762;8.660;2023-12-29T09:45:56;3.40;;;1.50;;
12373;SDS011;6251;51.762;8.660;2023-12-29T09:55:58;1.85;;;1.37;;
12373;SDS011;6251;51.762;8.660;2023-12-29T10:06:02;4.50;;;1.15;;
12373;SDS011;6251;51.762;8.660;2023-12-29T10:26:41;0.80;;;0.80;;
12373;SDS011;6251;51.762;8.660;2023-12-29T10:36:49;0.65;;;0.65;;
12373;SDS011;6251;51.762;8.660;2023-12-29T10:46:50;0.70;;;0.70;;
12373;SDS011;6251;51.762;8.660;2023-12-29T10:57:00;0.90;;;0.90;;
12373;SDS011;6251;51.762;8.660;2023-12-29T11:07:02;0.50;;;0.50;;
12373;SDS011;6251;51.762;8.660;2023-12-29T11:17:03;0.57;;;0.57;;
12373;SDS011;6251;51.762;8.660;2023-12-29T11:27:06;0.50;;;0.50;;
12373;SDS011;6251;51.762;8.660;2023-12-29T11:37:12;0.40;;;0.40;;
12373;SDS011;6251;51.762;8.660;2023-12-29T11:47:37;2.00;;;0.50;;
12373;SDS011;6251;51.762;8.660;2023-12-29T11:57:38;0.40;;;0.40;;
12373;SDS011;6251;51.762;8.660;2023-12-29T12:17:41;0.50;;;0.50;;
12373;SDS011;6251;51.762;8.660;2023-12-29T12:27:42;0.65;;;0.65;;
12373;SDS011;6251;51.762;8.660;2023-12-29T12:37:43;0.93;;;0.93;;
12373;SDS011;6251;51.762;8.660;2023-12-29T12:47:44;0.82;;;0.82;;
12373;SDS011;6251;51.762;8.660;2023-12-29T12:57:50;0.80;;;0.80;;
12373;SDS011;6251;51.762;8.660;2023-12-29T13:07:53;2.10;;;1.03;;
12373;SDS011;6251;51.762;8.660;2023-12-29T13:17:55;1.10;;;1.10;;
12373;SDS011;6251;51.762;8.660;2023-12-29T13:27:56;2.97;;;1.60;;
12373;SDS011;6251;51.762;8.660;2023-12-29T13:38:03;3.47;;;1.10;;
12373;SDS011;6251;51.762;8.660;2023-12-29T13:48:10;2.28;;;1.30;;
12373;SDS011;6251;51.762;8.660;2023-12-29T13:58:12;2.50;;;1.23;;
12373;SDS011;6251;51.762;8.660;2023-12-29T14:08:17;1.30;;;1.15;;
12373;SDS011;6251;51.762;8.660;2023-12-29T14:18:34;1.40;;;1.30;;
12373;SDS011;6251;51.762;8.660;2023-12-29T14:28:46;2.08;;;1.62;;
12373;SDS011;6251;51.762;8.660;2023-12-29T14:38:47;2.33;;;2.00;;
12373;SDS011;6251;51.762;8.660;2023-12-29T14:48:47;3.37;;;1.70;;
12373;SDS011;6251;51.762;8.660;2023-12-29T14:58:48;1.50;;;1.15;;
12373;SDS011;6251;51.762;8.660;2023-12-29T15:08:48;2.95;;;1.20;;
12373;SDS011;6251;51.762;8.660;2023-12-29T15:18:49;1.98;;;1.60;;
12373;SDS011;6251;51.762;8.660;2023-12-29T15:28:50;1.35;;;0.80;;
12373;SDS011;6251;51.762;8.660;2023-12-29T15:38:52;3.10;;;1.15;;
12373;SDS011;6251;51.762;8.660;2023-12-29T15:48:53;1.10;;;1.10;;
12373;SDS011;6251;51.762;8.660;2023-12-29T15:58:55;2.35;;;1.05;;
12373;SDS011;6251;51.762;8.660;2023-12-29T16:08:57;1.30;;;1.20;;
12373;SDS011;6251;51.762;8.660;2023-12-29T16:18:58;5.65;;;2.00;;
12373;SDS011;6251;51.762;8.660;2023-12-29T16:29:00;2.20;;;2.00;;
12373;SDS011;6251;51.762;8.660;2023-12-29T16:39:00;6.25;;;3.33;;
12373;SDS011;6251;51.762;8.660;2023-12-29T16:49:03;2.90;;;2.70;;
12373;SDS011;6251;51.762;8.660;2023-12-29T16:59:04;3.80;;;2.90;;
12373;SDS011;6251;51.762;8.660;2023-12-29T17:09:05;2.25;;;2.05;;
12373;SDS011;6251;51.762;8.660;2023-12-29T17:19:06;2.05;;;1.50;;
12373;SDS011;6251;51.762;8.660;2023-12-29T17:29:07;3.08;;;1.60;;
12373;SDS011;6251;51.762;8.660;2023-12-29T17:39:08;2.30;;;1.70;;
12373;SDS011;6251;51.762;8.660;2023-12-29T17:49:08;2.47;;;1.52;;
12373;SDS011;6251;51.762;8.660;2023-12-29T17:59:09;1.85;;;1.75;;
12373;SDS011;6251;51.762;8.660;2023-12-29T18:09:09;4.45;;;1.70;;
12373;SDS011;6251;51.762;8.660;2023-12-29T18:19:13;1.67;;;1.58;;
12373;SDS011;6251;51.762;8.660;2023-12-29T18:29:14;2.15;;;1.50;;
12373;SDS011;6251;51.762;8.660;2023-12-29T18:39:15;1.50;;;1.50;;
12373;SDS011;6251;51.762;8.660;2023-12-29T18:49:15;1.87;;;1.77;;
12373;SDS011;6251;51.762;8.660;2023-12-29T18:59:16;1.77;;;1.62;;
12373;SDS011;6251;51.762;8.660;2023-12-29T19:09:17;1.83;;;1.73;;
12373;SDS011;6251;51.762;8.660;2023-12-29T19:19:17;2.00;;;1.90;;
12373;SDS011;6251;51.762;8.660;2023-12-29T19:29:19;3.53;;;2.42;;
12373;SDS011;6251;51.762;8.660;2023-12-29T19:39:19;2.05;;;1.90;;
12373;SDS011;6251;51.762;8.660;2023-12-29T19:49:20;6.03;;;2.65;;
12373;SDS011;6251;51.762;8.660;2023-12-29T19:59:20;3.10;;;2.40;;
12373;SDS011;6251;51.762;8.660;2023-12-29T20:09:21;4.20;;;2.40;;
12373;SDS011;6251;51.762;8.660;2023-12-29T20:19:22;13.35;;;3.10;;
12373;SDS011;6251;51.762;8.660;2023-12-29T20:29:23;7.75;;;3.22;;
12373;SDS011;6251;51.762;8.660;2023-12-29T20:39:24;6.25;;;3.62;;
12373;SDS011;6251;51.762;8.660;2023-12-29T20:49:24;6.72;;;3.00;;
12373;SDS011;6251;51.762;8.660;2023-12-29T20:59:25;2.65;;;1.60;;
12373;SDS011;6251;51.762;8.660;2023-12-29T21:09:26;4.43;;;1.90;;
12373;SDS011;6251;51.762;8.660;2023-12-29T21:19:26;5.55;;;2.85;;
12373;SDS011;6251;51.762;8.660;2023-12-29T21:29:27;3.50;;;1.52;;
12373;SDS011;6251;51.762;8.660;2023-12-29T21:39:28;5.22;;;1.60;;
12373;SDS011;6251;51.762;8.660;2023-12-29T21:49:28;2.67;;;1.48;;
12373;SDS011;6251;51.762;8.660;2023-12-29T21:59:29;5.30;;;1.73;;
